<?xml version="1.0" encoding="UTF-8" standalone="no" ?>
<gpx xmlns="http://www.topografix.com/GPX/1/1" creator="MapSource 6.11.6" version="1.1" xmlns:xsi="http://www.w3.org/2001/XMLSchema-instance" xsi:schemaLocation="http://www.topografix.com/GPX/1/1 http://www.topografix.com/GPX/1/1/gpx.xsd">

  <metadata>
    <link href="http://www.garmin.com">
      <text>Garmin International</text>
    </link>
    <time>2009-09-06T13:33:42Z</time>
    <bounds maxlat="50.690817" maxlon="6.483149" minlat="50.682374" minlon="6.470720"/>
  </metadata>

  <trk>
    <name>Felsenrundgang Nideggen Teil 1</name>
    <extensions>
      <gpxx:TrackExtension xmlns:gpxx="http://www.garmin.com/xmlschemas/GpxExtensions/v3" xmlns:xsi="http://www.w3.org/2001/XMLSchema-instance" xsi:schemaLocation="http://www.garmin.com/xmlschemas/GpxExtensions/v3 http://www.garmin.com/xmlschemas/GpxExtensions/v3/GpxExtensionsv3.xsd">
        <gpxx:DisplayColor>White</gpxx:DisplayColor>
      </gpxx:TrackExtension>
    </extensions>
    <trkseg>
      <trkpt lat="50.688366" lon="6.483149">
        <ele>289.490000</ele>
        <time>2009-09-06T08:17:56Z</time>
      </trkpt>
      <trkpt lat="50.688339" lon="6.483099">
        <ele>289.490000</ele>
        <time>2009-09-06T08:17:57Z</time>
      </trkpt>
      <trkpt lat="50.688307" lon="6.482949">
        <ele>289.970000</ele>
        <time>2009-09-06T08:18:04Z</time>
      </trkpt>
      <trkpt lat="50.688325" lon="6.482875">
        <ele>289.970000</ele>
        <time>2009-09-06T08:18:07Z</time>
      </trkpt>
      <trkpt lat="50.688346" lon="6.482846">
        <ele>289.970000</ele>
        <time>2009-09-06T08:18:09Z</time>
      </trkpt>
      <trkpt lat="50.688620" lon="6.483024">
        <ele>289.970000</ele>
        <time>2009-09-06T08:18:14Z</time>
      </trkpt>
      <trkpt lat="50.688668" lon="6.483027">
        <ele>289.970000</ele>
        <time>2009-09-06T08:18:16Z</time>
      </trkpt>
      <trkpt lat="50.688718" lon="6.483080">
        <ele>289.970000</ele>
        <time>2009-09-06T08:18:19Z</time>
      </trkpt>
      <trkpt lat="50.688815" lon="6.483057">
        <ele>290.460000</ele>
        <time>2009-09-06T08:18:32Z</time>
      </trkpt>
      <trkpt lat="50.688850" lon="6.483004">
        <ele>290.940000</ele>
        <time>2009-09-06T08:19:06Z</time>
      </trkpt>
      <trkpt lat="50.688879" lon="6.482959">
        <ele>290.940000</ele>
        <time>2009-09-06T08:19:10Z</time>
      </trkpt>
      <trkpt lat="50.688946" lon="6.482929">
        <ele>290.940000</ele>
        <time>2009-09-06T08:19:15Z</time>
      </trkpt>
      <trkpt lat="50.688970" lon="6.482817">
        <ele>290.940000</ele>
        <time>2009-09-06T08:19:23Z</time>
      </trkpt>
      <trkpt lat="50.688985" lon="6.482782">
        <ele>290.940000</ele>
        <time>2009-09-06T08:19:25Z</time>
      </trkpt>
      <trkpt lat="50.689002" lon="6.482736">
        <ele>290.940000</ele>
        <time>2009-09-06T08:19:28Z</time>
      </trkpt>
      <trkpt lat="50.689086" lon="6.482692">
        <ele>290.940000</ele>
        <time>2009-09-06T08:19:33Z</time>
      </trkpt>
      <trkpt lat="50.689120" lon="6.482587">
        <ele>291.420000</ele>
        <time>2009-09-06T08:19:38Z</time>
      </trkpt>
      <trkpt lat="50.689224" lon="6.482365">
        <ele>290.460000</ele>
        <time>2009-09-06T08:19:52Z</time>
      </trkpt>
      <trkpt lat="50.689311" lon="6.482269">
        <ele>290.460000</ele>
        <time>2009-09-06T08:20:05Z</time>
      </trkpt>
      <trkpt lat="50.689389" lon="6.482269">
        <ele>290.940000</ele>
        <time>2009-09-06T08:20:17Z</time>
      </trkpt>
      <trkpt lat="50.689407" lon="6.482157">
        <ele>290.940000</ele>
        <time>2009-09-06T08:20:23Z</time>
      </trkpt>
      <trkpt lat="50.689459" lon="6.482093">
        <ele>290.460000</ele>
        <time>2009-09-06T08:20:27Z</time>
      </trkpt>
      <trkpt lat="50.689478" lon="6.482074">
        <ele>290.940000</ele>
        <time>2009-09-06T08:20:29Z</time>
      </trkpt>
      <trkpt lat="50.689585" lon="6.481938">
        <ele>290.460000</ele>
        <time>2009-09-06T08:20:40Z</time>
      </trkpt>
      <trkpt lat="50.689631" lon="6.481901">
        <ele>290.460000</ele>
        <time>2009-09-06T08:20:44Z</time>
      </trkpt>
      <trkpt lat="50.689701" lon="6.481860">
        <ele>289.970000</ele>
        <time>2009-09-06T08:20:50Z</time>
      </trkpt>
      <trkpt lat="50.689734" lon="6.481828">
        <ele>289.970000</ele>
        <time>2009-09-06T08:20:53Z</time>
      </trkpt>
      <trkpt lat="50.689788" lon="6.481814">
        <ele>289.970000</ele>
        <time>2009-09-06T08:20:57Z</time>
      </trkpt>
      <trkpt lat="50.689804" lon="6.481710">
        <ele>289.490000</ele>
        <time>2009-09-06T08:21:02Z</time>
      </trkpt>
      <trkpt lat="50.689799" lon="6.481626">
        <ele>289.970000</ele>
        <time>2009-09-06T08:21:17Z</time>
      </trkpt>
      <trkpt lat="50.689800" lon="6.481545">
        <ele>289.970000</ele>
        <time>2009-09-06T08:21:23Z</time>
      </trkpt>
      <trkpt lat="50.689865" lon="6.481473">
        <ele>289.970000</ele>
        <time>2009-09-06T08:21:28Z</time>
      </trkpt>
      <trkpt lat="50.689971" lon="6.481298">
        <ele>289.010000</ele>
        <time>2009-09-06T08:21:43Z</time>
      </trkpt>
      <trkpt lat="50.690003" lon="6.481281">
        <ele>289.010000</ele>
        <time>2009-09-06T08:21:45Z</time>
      </trkpt>
      <trkpt lat="50.690185" lon="6.481131">
        <ele>289.010000</ele>
        <time>2009-09-06T08:21:57Z</time>
      </trkpt>
      <trkpt lat="50.690391" lon="6.480850">
        <ele>287.570000</ele>
        <time>2009-09-06T08:22:18Z</time>
      </trkpt>
      <trkpt lat="50.690535" lon="6.480623">
        <ele>286.610000</ele>
        <time>2009-09-06T08:22:32Z</time>
      </trkpt>
      <trkpt lat="50.690652" lon="6.480428">
        <ele>285.650000</ele>
        <time>2009-09-06T08:22:45Z</time>
      </trkpt>
      <trkpt lat="50.690775" lon="6.480248">
        <ele>283.730000</ele>
        <time>2009-09-06T08:22:59Z</time>
      </trkpt>
      <trkpt lat="50.690791" lon="6.480224">
        <ele>283.730000</ele>
        <time>2009-09-06T08:23:00Z</time>
      </trkpt>
      <trkpt lat="50.690803" lon="6.480147">
        <ele>283.250000</ele>
        <time>2009-09-06T08:23:04Z</time>
      </trkpt>
      <trkpt lat="50.690817" lon="6.480087">
        <ele>282.770000</ele>
        <time>2009-09-06T08:23:09Z</time>
      </trkpt>
      <trkpt lat="50.690771" lon="6.480005">
        <ele>282.280000</ele>
        <time>2009-09-06T08:23:13Z</time>
      </trkpt>
      <trkpt lat="50.690670" lon="6.479806">
        <ele>280.840000</ele>
        <time>2009-09-06T08:23:23Z</time>
      </trkpt>
      <trkpt lat="50.690614" lon="6.479718">
        <ele>280.360000</ele>
        <time>2009-09-06T08:23:29Z</time>
      </trkpt>
      <trkpt lat="50.690469" lon="6.479498">
        <ele>284.210000</ele>
        <time>2009-09-06T08:23:45Z</time>
      </trkpt>
      <trkpt lat="50.690296" lon="6.479428">
        <ele>285.170000</ele>
        <time>2009-09-06T08:23:58Z</time>
      </trkpt>
      <trkpt lat="50.690129" lon="6.479197">
        <ele>288.050000</ele>
        <time>2009-09-06T08:24:19Z</time>
      </trkpt>
      <trkpt lat="50.689887" lon="6.478872">
        <ele>290.940000</ele>
        <time>2009-09-06T08:24:39Z</time>
      </trkpt>
      <trkpt lat="50.689818" lon="6.478779">
        <ele>291.420000</ele>
        <time>2009-09-06T08:24:56Z</time>
      </trkpt>
      <trkpt lat="50.689799" lon="6.478900">
        <ele>291.900000</ele>
        <time>2009-09-06T08:25:15Z</time>
      </trkpt>
      <trkpt lat="50.689862" lon="6.478900">
        <ele>291.900000</ele>
        <time>2009-09-06T08:25:49Z</time>
      </trkpt>
      <trkpt lat="50.689870" lon="6.478718">
        <ele>291.900000</ele>
        <time>2009-09-06T08:26:06Z</time>
      </trkpt>
      <trkpt lat="50.689844" lon="6.478660">
        <ele>291.900000</ele>
        <time>2009-09-06T08:26:32Z</time>
      </trkpt>
      <trkpt lat="50.689634" lon="6.478360">
        <ele>292.860000</ele>
        <time>2009-09-06T08:26:54Z</time>
      </trkpt>
      <trkpt lat="50.689434" lon="6.478018">
        <ele>294.780000</ele>
        <time>2009-09-06T08:27:16Z</time>
      </trkpt>
      <trkpt lat="50.689259" lon="6.477708">
        <ele>297.180000</ele>
        <time>2009-09-06T08:27:35Z</time>
      </trkpt>
      <trkpt lat="50.689243" lon="6.477594">
        <ele>298.630000</ele>
        <time>2009-09-06T08:27:53Z</time>
      </trkpt>
      <trkpt lat="50.689266" lon="6.477550">
        <ele>298.630000</ele>
        <time>2009-09-06T08:28:09Z</time>
      </trkpt>
      <trkpt lat="50.689276" lon="6.477298">
        <ele>297.180000</ele>
        <time>2009-09-06T08:28:27Z</time>
      </trkpt>
      <trkpt lat="50.689245" lon="6.476975">
        <ele>295.740000</ele>
        <time>2009-09-06T08:28:46Z</time>
      </trkpt>
      <trkpt lat="50.689235" lon="6.476911">
        <ele>295.260000</ele>
        <time>2009-09-06T08:28:50Z</time>
      </trkpt>
      <trkpt lat="50.689046" lon="6.476626">
        <ele>295.740000</ele>
        <time>2009-09-06T08:29:10Z</time>
      </trkpt>
      <trkpt lat="50.689063" lon="6.476570">
        <ele>295.740000</ele>
        <time>2009-09-06T08:29:24Z</time>
      </trkpt>
      <trkpt lat="50.689037" lon="6.476555">
        <ele>295.740000</ele>
        <time>2009-09-06T08:29:33Z</time>
      </trkpt>
      <trkpt lat="50.689006" lon="6.476462">
        <ele>296.220000</ele>
        <time>2009-09-06T08:29:45Z</time>
      </trkpt>
      <trkpt lat="50.689018" lon="6.476247">
        <ele>297.180000</ele>
        <time>2009-09-06T08:30:07Z</time>
      </trkpt>
      <trkpt lat="50.689045" lon="6.476172">
        <ele>297.180000</ele>
        <time>2009-09-06T08:30:29Z</time>
      </trkpt>
      <trkpt lat="50.689029" lon="6.476173">
        <ele>298.150000</ele>
        <time>2009-09-06T08:31:07Z</time>
      </trkpt>
      <trkpt lat="50.689043" lon="6.475986">
        <ele>297.180000</ele>
        <time>2009-09-06T08:31:30Z</time>
      </trkpt>
      <trkpt lat="50.689034" lon="6.475644">
        <ele>296.220000</ele>
        <time>2009-09-06T08:31:52Z</time>
      </trkpt>
      <trkpt lat="50.688988" lon="6.475560">
        <ele>295.740000</ele>
        <time>2009-09-06T08:32:10Z</time>
      </trkpt>
      <trkpt lat="50.688888" lon="6.475532">
        <ele>293.820000</ele>
        <time>2009-09-06T08:32:24Z</time>
      </trkpt>
      <trkpt lat="50.688707" lon="6.475515">
        <ele>291.420000</ele>
        <time>2009-09-06T08:32:45Z</time>
      </trkpt>
      <trkpt lat="50.688610" lon="6.475610">
        <ele>291.900000</ele>
        <time>2009-09-06T08:33:04Z</time>
      </trkpt>
      <trkpt lat="50.688532" lon="6.475569">
        <ele>290.460000</ele>
        <time>2009-09-06T08:33:21Z</time>
      </trkpt>
      <trkpt lat="50.688504" lon="6.475578">
        <ele>290.460000</ele>
        <time>2009-09-06T08:33:41Z</time>
      </trkpt>
      <trkpt lat="50.688450" lon="6.475537">
        <ele>291.900000</ele>
        <time>2009-09-06T08:35:15Z</time>
      </trkpt>
      <trkpt lat="50.688440" lon="6.475532">
        <ele>293.820000</ele>
        <time>2009-09-06T08:36:19Z</time>
      </trkpt>
      <trkpt lat="50.688447" lon="6.475607">
        <ele>294.300000</ele>
        <time>2009-09-06T08:36:37Z</time>
      </trkpt>
      <trkpt lat="50.688437" lon="6.475814">
        <ele>294.780000</ele>
        <time>2009-09-06T08:36:50Z</time>
      </trkpt>
      <trkpt lat="50.688448" lon="6.475852">
        <ele>294.780000</ele>
        <time>2009-09-06T08:37:13Z</time>
      </trkpt>
      <trkpt lat="50.688412" lon="6.475818">
        <ele>294.780000</ele>
        <time>2009-09-06T08:37:41Z</time>
      </trkpt>
      <trkpt lat="50.688439" lon="6.475837">
        <ele>294.780000</ele>
        <time>2009-09-06T08:38:10Z</time>
      </trkpt>
      <trkpt lat="50.688337" lon="6.475999">
        <ele>296.700000</ele>
        <time>2009-09-06T08:38:35Z</time>
      </trkpt>
      <trkpt lat="50.688264" lon="6.476129">
        <ele>297.180000</ele>
        <time>2009-09-06T08:38:51Z</time>
      </trkpt>
      <trkpt lat="50.688191" lon="6.476395">
        <ele>296.220000</ele>
        <time>2009-09-06T08:39:11Z</time>
      </trkpt>
      <trkpt lat="50.688103" lon="6.476541">
        <ele>294.780000</ele>
        <time>2009-09-06T08:39:28Z</time>
      </trkpt>
      <trkpt lat="50.688084" lon="6.476586">
        <ele>294.300000</ele>
        <time>2009-09-06T08:39:32Z</time>
      </trkpt>
      <trkpt lat="50.688029" lon="6.476669">
        <ele>293.820000</ele>
        <time>2009-09-06T08:39:56Z</time>
      </trkpt>
      <trkpt lat="50.688124" lon="6.476689">
        <ele>294.300000</ele>
        <time>2009-09-06T08:40:40Z</time>
      </trkpt>
      <trkpt lat="50.688162" lon="6.476722">
        <ele>293.340000</ele>
        <time>2009-09-06T08:40:59Z</time>
      </trkpt>
      <trkpt lat="50.688196" lon="6.476903">
        <ele>290.460000</ele>
        <time>2009-09-06T08:41:15Z</time>
      </trkpt>
      <trkpt lat="50.688215" lon="6.477102">
        <ele>289.010000</ele>
        <time>2009-09-06T08:41:33Z</time>
      </trkpt>
      <trkpt lat="50.688217" lon="6.477242">
        <ele>288.050000</ele>
        <time>2009-09-06T08:42:06Z</time>
      </trkpt>
      <trkpt lat="50.688144" lon="6.477319">
        <ele>288.530000</ele>
        <time>2009-09-06T08:42:43Z</time>
      </trkpt>
      <trkpt lat="50.688113" lon="6.477341">
        <ele>288.530000</ele>
        <time>2009-09-06T08:42:45Z</time>
      </trkpt>
      <trkpt lat="50.688053" lon="6.477491">
        <ele>289.490000</ele>
        <time>2009-09-06T08:43:06Z</time>
      </trkpt>
      <trkpt lat="50.688151" lon="6.477819">
        <ele>289.970000</ele>
        <time>2009-09-06T08:43:35Z</time>
      </trkpt>
      <trkpt lat="50.688117" lon="6.478014">
        <ele>289.010000</ele>
        <time>2009-09-06T08:43:53Z</time>
      </trkpt>
      <trkpt lat="50.688043" lon="6.478155">
        <ele>289.010000</ele>
        <time>2009-09-06T08:44:10Z</time>
      </trkpt>
      <trkpt lat="50.687987" lon="6.478482">
        <ele>289.010000</ele>
        <time>2009-09-06T08:44:29Z</time>
      </trkpt>
      <trkpt lat="50.687984" lon="6.478591">
        <ele>289.010000</ele>
        <time>2009-09-06T08:44:46Z</time>
      </trkpt>
      <trkpt lat="50.687992" lon="6.478657">
        <ele>287.090000</ele>
        <time>2009-09-06T08:45:06Z</time>
      </trkpt>
      <trkpt lat="50.688041" lon="6.478779">
        <ele>287.090000</ele>
        <time>2009-09-06T08:45:29Z</time>
      </trkpt>
      <trkpt lat="50.687919" lon="6.478852">
        <ele>283.730000</ele>
        <time>2009-09-06T08:45:47Z</time>
      </trkpt>
      <trkpt lat="50.687885" lon="6.479023">
        <ele>274.590000</ele>
        <time>2009-09-06T08:46:58Z</time>
      </trkpt>
      <trkpt lat="50.687883" lon="6.479315">
        <ele>273.630000</ele>
        <time>2009-09-06T08:47:17Z</time>
      </trkpt>
      <trkpt lat="50.688002" lon="6.479514">
        <ele>273.150000</ele>
        <time>2009-09-06T08:47:29Z</time>
      </trkpt>
      <trkpt lat="50.688126" lon="6.479868">
        <ele>271.710000</ele>
        <time>2009-09-06T08:47:48Z</time>
      </trkpt>
      <trkpt lat="50.688222" lon="6.480125">
        <ele>269.790000</ele>
        <time>2009-09-06T08:48:08Z</time>
      </trkpt>
      <trkpt lat="50.688333" lon="6.480400">
        <ele>270.270000</ele>
        <time>2009-09-06T08:48:28Z</time>
      </trkpt>
      <trkpt lat="50.688267" lon="6.480663">
        <ele>269.310000</ele>
        <time>2009-09-06T08:48:47Z</time>
      </trkpt>
      <trkpt lat="50.688255" lon="6.480526">
        <ele>267.380000</ele>
        <time>2009-09-06T08:49:04Z</time>
      </trkpt>
      <trkpt lat="50.688132" lon="6.480657">
        <ele>264.980000</ele>
        <time>2009-09-06T08:49:22Z</time>
      </trkpt>
      <trkpt lat="50.688150" lon="6.480763">
        <ele>263.060000</ele>
        <time>2009-09-06T08:49:44Z</time>
      </trkpt>
      <trkpt lat="50.688107" lon="6.480858">
        <ele>263.060000</ele>
        <time>2009-09-06T08:49:51Z</time>
      </trkpt>
      <trkpt lat="50.688079" lon="6.481163">
        <ele>264.980000</ele>
        <time>2009-09-06T08:50:13Z</time>
      </trkpt>
      <trkpt lat="50.688033" lon="6.481355">
        <ele>268.350000</ele>
        <time>2009-09-06T08:50:31Z</time>
      </trkpt>
      <trkpt lat="50.688017" lon="6.481561">
        <ele>270.750000</ele>
        <time>2009-09-06T08:50:50Z</time>
      </trkpt>
      <trkpt lat="50.688002" lon="6.481922">
        <ele>274.110000</ele>
        <time>2009-09-06T08:51:04Z</time>
      </trkpt>
      <trkpt lat="50.687946" lon="6.482129">
        <ele>277.000000</ele>
        <time>2009-09-06T08:51:20Z</time>
      </trkpt>
      <trkpt lat="50.687830" lon="6.482223">
        <ele>279.880000</ele>
        <time>2009-09-06T08:51:38Z</time>
      </trkpt>
      <trkpt lat="50.687777" lon="6.482428">
        <ele>281.800000</ele>
        <time>2009-09-06T08:51:59Z</time>
      </trkpt>
      <trkpt lat="50.687731" lon="6.482750">
        <ele>284.690000</ele>
        <time>2009-09-06T08:52:18Z</time>
      </trkpt>
      <trkpt lat="50.687596" lon="6.482856">
        <ele>285.650000</ele>
        <time>2009-09-06T08:52:35Z</time>
      </trkpt>
      <trkpt lat="50.687460" lon="6.482624">
        <ele>286.610000</ele>
        <time>2009-09-06T08:52:55Z</time>
      </trkpt>
      <trkpt lat="50.687416" lon="6.482710">
        <ele>288.050000</ele>
        <time>2009-09-06T08:53:10Z</time>
      </trkpt>
      <trkpt lat="50.687383" lon="6.482570">
        <ele>289.010000</ele>
        <time>2009-09-06T08:53:32Z</time>
      </trkpt>
      <trkpt lat="50.687352" lon="6.482449">
        <ele>289.970000</ele>
        <time>2009-09-06T08:53:39Z</time>
      </trkpt>
      <trkpt lat="50.687283" lon="6.482097">
        <ele>290.940000</ele>
        <time>2009-09-06T08:53:59Z</time>
      </trkpt>
      <trkpt lat="50.687124" lon="6.481784">
        <ele>293.820000</ele>
        <time>2009-09-06T08:54:20Z</time>
      </trkpt>
      <trkpt lat="50.687090" lon="6.481732">
        <ele>294.300000</ele>
        <time>2009-09-06T08:54:25Z</time>
      </trkpt>
      <trkpt lat="50.686953" lon="6.481718">
        <ele>295.260000</ele>
        <time>2009-09-06T08:54:45Z</time>
      </trkpt>
      <trkpt lat="50.686828" lon="6.481855">
        <ele>295.260000</ele>
        <time>2009-09-06T08:55:40Z</time>
      </trkpt>
      <trkpt lat="50.686611" lon="6.481860">
        <ele>293.820000</ele>
        <time>2009-09-06T08:56:03Z</time>
      </trkpt>
      <trkpt lat="50.686570" lon="6.481787">
        <ele>293.340000</ele>
        <time>2009-09-06T08:56:07Z</time>
      </trkpt>
      <trkpt lat="50.686515" lon="6.481479">
        <ele>291.900000</ele>
        <time>2009-09-06T08:56:26Z</time>
      </trkpt>
      <trkpt lat="50.686395" lon="6.481298">
        <ele>290.940000</ele>
        <time>2009-09-06T08:56:49Z</time>
      </trkpt>
      <trkpt lat="50.686303" lon="6.480952">
        <ele>287.570000</ele>
        <time>2009-09-06T08:57:09Z</time>
      </trkpt>
      <trkpt lat="50.686197" lon="6.480602">
        <ele>285.650000</ele>
        <time>2009-09-06T08:57:28Z</time>
      </trkpt>
      <trkpt lat="50.686181" lon="6.480237">
        <ele>283.250000</ele>
        <time>2009-09-06T08:57:48Z</time>
      </trkpt>
      <trkpt lat="50.686176" lon="6.479944">
        <ele>281.320000</ele>
        <time>2009-09-06T08:58:06Z</time>
      </trkpt>
      <trkpt lat="50.686139" lon="6.479744">
        <ele>280.840000</ele>
        <time>2009-09-06T08:58:17Z</time>
      </trkpt>
      <trkpt lat="50.686102" lon="6.479586">
        <ele>279.880000</ele>
        <time>2009-09-06T08:58:29Z</time>
      </trkpt>
      <trkpt lat="50.686076" lon="6.479458">
        <ele>279.880000</ele>
        <time>2009-09-06T08:58:36Z</time>
      </trkpt>
      <trkpt lat="50.686065" lon="6.479305">
        <ele>277.000000</ele>
        <time>2009-09-06T08:58:50Z</time>
      </trkpt>
      <trkpt lat="50.686017" lon="6.479280">
        <ele>277.000000</ele>
        <time>2009-09-06T08:59:12Z</time>
      </trkpt>
      <trkpt lat="50.685926" lon="6.479032">
        <ele>277.000000</ele>
        <time>2009-09-06T09:00:23Z</time>
      </trkpt>
      <trkpt lat="50.685841" lon="6.478992">
        <ele>277.960000</ele>
        <time>2009-09-06T09:00:47Z</time>
      </trkpt>
      <trkpt lat="50.685653" lon="6.478950">
        <ele>279.400000</ele>
        <time>2009-09-06T09:01:29Z</time>
      </trkpt>
      <trkpt lat="50.685551" lon="6.478735">
        <ele>279.400000</ele>
        <time>2009-09-06T09:01:46Z</time>
      </trkpt>
      <trkpt lat="50.685448" lon="6.478646">
        <ele>278.440000</ele>
        <time>2009-09-06T09:02:05Z</time>
      </trkpt>
      <trkpt lat="50.685405" lon="6.478611">
        <ele>278.440000</ele>
        <time>2009-09-06T09:02:36Z</time>
      </trkpt>
      <trkpt lat="50.685335" lon="6.478378">
        <ele>277.960000</ele>
        <time>2009-09-06T09:02:55Z</time>
      </trkpt>
      <trkpt lat="50.685236" lon="6.478229">
        <ele>279.880000</ele>
        <time>2009-09-06T09:03:28Z</time>
      </trkpt>
      <trkpt lat="50.685200" lon="6.478085">
        <ele>280.360000</ele>
        <time>2009-09-06T09:03:45Z</time>
      </trkpt>
      <trkpt lat="50.685075" lon="6.477992">
        <ele>280.360000</ele>
        <time>2009-09-06T09:04:35Z</time>
      </trkpt>
      <trkpt lat="50.685026" lon="6.477921">
        <ele>280.360000</ele>
        <time>2009-09-06T09:04:49Z</time>
      </trkpt>
      <trkpt lat="50.684949" lon="6.477748">
        <ele>279.880000</ele>
        <time>2009-09-06T09:05:08Z</time>
      </trkpt>
      <trkpt lat="50.685013" lon="6.477888">
        <ele>279.880000</ele>
        <time>2009-09-06T09:05:39Z</time>
      </trkpt>
      <trkpt lat="50.685093" lon="6.477901">
        <ele>280.360000</ele>
        <time>2009-09-06T09:06:17Z</time>
      </trkpt>
      <trkpt lat="50.684863" lon="6.477741">
        <ele>280.840000</ele>
        <time>2009-09-06T09:06:34Z</time>
      </trkpt>
      <trkpt lat="50.684745" lon="6.477607">
        <ele>281.800000</ele>
        <time>2009-09-06T09:06:54Z</time>
      </trkpt>
      <trkpt lat="50.684654" lon="6.477490">
        <ele>284.210000</ele>
        <time>2009-09-06T09:07:12Z</time>
      </trkpt>
      <trkpt lat="50.684521" lon="6.477426">
        <ele>286.130000</ele>
        <time>2009-09-06T09:07:28Z</time>
      </trkpt>
      <trkpt lat="50.684548" lon="6.477449">
        <ele>285.650000</ele>
        <time>2009-09-06T09:08:02Z</time>
      </trkpt>
      <trkpt lat="50.684552" lon="6.477473">
        <ele>286.130000</ele>
        <time>2009-09-06T09:08:32Z</time>
      </trkpt>
      <trkpt lat="50.684520" lon="6.477499">
        <ele>286.610000</ele>
        <time>2009-09-06T09:09:48Z</time>
      </trkpt>
      <trkpt lat="50.684516" lon="6.477555">
        <ele>286.610000</ele>
        <time>2009-09-06T09:09:51Z</time>
      </trkpt>
      <trkpt lat="50.684537" lon="6.477655">
        <ele>287.090000</ele>
        <time>2009-09-06T09:09:58Z</time>
      </trkpt>
      <trkpt lat="50.684521" lon="6.477683">
        <ele>287.090000</ele>
        <time>2009-09-06T09:10:00Z</time>
      </trkpt>
      <trkpt lat="50.684531" lon="6.477849">
        <ele>287.570000</ele>
        <time>2009-09-06T09:10:13Z</time>
      </trkpt>
      <trkpt lat="50.684519" lon="6.477930">
        <ele>287.570000</ele>
        <time>2009-09-06T09:10:17Z</time>
      </trkpt>
      <trkpt lat="50.684527" lon="6.478193">
        <ele>289.490000</ele>
        <time>2009-09-06T09:10:36Z</time>
      </trkpt>
      <trkpt lat="50.684540" lon="6.478219">
        <ele>289.490000</ele>
        <time>2009-09-06T09:11:22Z</time>
      </trkpt>
      <trkpt lat="50.684459" lon="6.478128">
        <ele>289.490000</ele>
        <time>2009-09-06T09:11:56Z</time>
      </trkpt>
      <trkpt lat="50.684471" lon="6.478138">
        <ele>289.490000</ele>
        <time>2009-09-06T09:12:12Z</time>
      </trkpt>
      <trkpt lat="50.684465" lon="6.478154">
        <ele>289.490000</ele>
        <time>2009-09-06T09:12:42Z</time>
      </trkpt>
      <trkpt lat="50.684434" lon="6.478334">
        <ele>290.460000</ele>
        <time>2009-09-06T09:13:08Z</time>
      </trkpt>
      <trkpt lat="50.684555" lon="6.478414">
        <ele>290.460000</ele>
        <time>2009-09-06T09:13:40Z</time>
      </trkpt>
      <trkpt lat="50.684523" lon="6.478432">
        <ele>290.940000</ele>
        <time>2009-09-06T09:14:32Z</time>
      </trkpt>
      <trkpt lat="50.684403" lon="6.478530">
        <ele>291.900000</ele>
        <time>2009-09-06T09:15:19Z</time>
      </trkpt>
      <trkpt lat="50.684366" lon="6.478611">
        <ele>291.900000</ele>
        <time>2009-09-06T09:15:23Z</time>
      </trkpt>
      <trkpt lat="50.684137" lon="6.478834">
        <ele>291.900000</ele>
        <time>2009-09-06T09:15:44Z</time>
      </trkpt>
      <trkpt lat="50.684026" lon="6.478780">
        <ele>291.900000</ele>
        <time>2009-09-06T09:15:52Z</time>
      </trkpt>
      <trkpt lat="50.683718" lon="6.478582">
        <ele>290.460000</ele>
        <time>2009-09-06T09:16:14Z</time>
      </trkpt>
      <trkpt lat="50.683476" lon="6.478499">
        <ele>289.010000</ele>
        <time>2009-09-06T09:16:35Z</time>
      </trkpt>
      <trkpt lat="50.683402" lon="6.478554">
        <ele>289.010000</ele>
        <time>2009-09-06T09:16:44Z</time>
      </trkpt>
      <trkpt lat="50.683261" lon="6.478774">
        <ele>289.010000</ele>
        <time>2009-09-06T09:17:07Z</time>
      </trkpt>
      <trkpt lat="50.683210" lon="6.478853">
        <ele>289.010000</ele>
        <time>2009-09-06T09:17:15Z</time>
      </trkpt>
      <trkpt lat="50.683112" lon="6.478943">
        <ele>289.490000</ele>
        <time>2009-09-06T09:17:34Z</time>
      </trkpt>
      <trkpt lat="50.683068" lon="6.479171">
        <ele>291.900000</ele>
        <time>2009-09-06T09:17:58Z</time>
      </trkpt>
      <trkpt lat="50.683050" lon="6.479503">
        <ele>293.340000</ele>
        <time>2009-09-06T09:18:16Z</time>
      </trkpt>
      <trkpt lat="50.683045" lon="6.479519">
        <ele>293.820000</ele>
        <time>2009-09-06T09:18:17Z</time>
      </trkpt>
      <trkpt lat="50.682922" lon="6.479625">
        <ele>293.820000</ele>
        <time>2009-09-06T09:18:37Z</time>
      </trkpt>
      <trkpt lat="50.682887" lon="6.479631">
        <ele>293.820000</ele>
        <time>2009-09-06T09:19:25Z</time>
      </trkpt>
      <trkpt lat="50.682963" lon="6.479762">
        <ele>294.780000</ele>
        <time>2009-09-06T09:19:39Z</time>
      </trkpt>
      <trkpt lat="50.683083" lon="6.479984">
        <ele>294.780000</ele>
        <time>2009-09-06T09:19:54Z</time>
      </trkpt>
      <trkpt lat="50.683176" lon="6.480152">
        <ele>295.260000</ele>
        <time>2009-09-06T09:20:11Z</time>
      </trkpt>
      <trkpt lat="50.683262" lon="6.480437">
        <ele>295.740000</ele>
        <time>2009-09-06T09:20:30Z</time>
      </trkpt>
      <trkpt lat="50.683394" lon="6.480666">
        <ele>295.740000</ele>
        <time>2009-09-06T09:20:46Z</time>
      </trkpt>
      <trkpt lat="50.683401" lon="6.480790">
        <ele>296.220000</ele>
        <time>2009-09-06T09:20:54Z</time>
      </trkpt>
      <trkpt lat="50.683401" lon="6.481018">
        <ele>296.700000</ele>
        <time>2009-09-06T09:21:07Z</time>
      </trkpt>
      <trkpt lat="50.683258" lon="6.481170">
        <ele>297.180000</ele>
        <time>2009-09-06T09:21:16Z</time>
      </trkpt>
      <trkpt lat="50.683206" lon="6.481499">
        <ele>297.670000</ele>
        <time>2009-09-06T09:21:35Z</time>
      </trkpt>
      <trkpt lat="50.683257" lon="6.481617">
        <ele>298.630000</ele>
        <time>2009-09-06T09:21:53Z</time>
      </trkpt>
      <trkpt lat="50.683239" lon="6.481544">
        <ele>298.150000</ele>
        <time>2009-09-06T09:21:55Z</time>
      </trkpt>
      <trkpt lat="50.683210" lon="6.481398">
        <ele>296.700000</ele>
        <time>2009-09-06T09:22:15Z</time>
      </trkpt>
      <trkpt lat="50.683228" lon="6.481565">
        <ele>295.260000</ele>
        <time>2009-09-06T09:22:33Z</time>
      </trkpt>
      <trkpt lat="50.683235" lon="6.481585">
        <ele>295.260000</ele>
        <time>2009-09-06T09:22:34Z</time>
      </trkpt>
      <trkpt lat="50.683285" lon="6.481986">
        <ele>293.820000</ele>
        <time>2009-09-06T09:22:57Z</time>
      </trkpt>
      <trkpt lat="50.683297" lon="6.482370">
        <ele>293.820000</ele>
        <time>2009-09-06T09:23:17Z</time>
      </trkpt>
      <trkpt lat="50.683198" lon="6.482390">
        <ele>291.420000</ele>
        <time>2009-09-06T09:23:35Z</time>
      </trkpt>
      <trkpt lat="50.683182" lon="6.482364">
        <ele>291.420000</ele>
        <time>2009-09-06T09:23:37Z</time>
      </trkpt>
      <trkpt lat="50.683130" lon="6.482138">
        <ele>289.010000</ele>
        <time>2009-09-06T09:23:51Z</time>
      </trkpt>
      <trkpt lat="50.683035" lon="6.481850">
        <ele>286.610000</ele>
        <time>2009-09-06T09:24:09Z</time>
      </trkpt>
      <trkpt lat="50.682935" lon="6.481498">
        <ele>283.250000</ele>
        <time>2009-09-06T09:24:28Z</time>
      </trkpt>
      <trkpt lat="50.682869" lon="6.481218">
        <ele>280.840000</ele>
        <time>2009-09-06T09:24:46Z</time>
      </trkpt>
      <trkpt lat="50.682904" lon="6.481087">
        <ele>280.360000</ele>
        <time>2009-09-06T09:25:03Z</time>
      </trkpt>
      <trkpt lat="50.682768" lon="6.480836">
        <ele>277.960000</ele>
        <time>2009-09-06T09:25:19Z</time>
      </trkpt>
      <trkpt lat="50.682701" lon="6.480612">
        <ele>274.590000</ele>
        <time>2009-09-06T09:25:36Z</time>
      </trkpt>
      <trkpt lat="50.682642" lon="6.480325">
        <ele>271.710000</ele>
        <time>2009-09-06T09:25:56Z</time>
      </trkpt>
      <trkpt lat="50.682517" lon="6.480143">
        <ele>270.270000</ele>
        <time>2009-09-06T09:26:20Z</time>
      </trkpt>
      <trkpt lat="50.682508" lon="6.479833">
        <ele>267.860000</ele>
        <time>2009-09-06T09:26:37Z</time>
      </trkpt>
      <trkpt lat="50.682418" lon="6.479525">
        <ele>264.980000</ele>
        <time>2009-09-06T09:26:56Z</time>
      </trkpt>
      <trkpt lat="50.682392" lon="6.479314">
        <ele>261.620000</ele>
        <time>2009-09-06T09:27:13Z</time>
      </trkpt>
      <trkpt lat="50.682374" lon="6.479195">
        <ele>258.730000</ele>
        <time>2009-09-06T09:27:29Z</time>
      </trkpt>
      <trkpt lat="50.682425" lon="6.478965">
        <ele>256.810000</ele>
        <time>2009-09-06T09:27:40Z</time>
      </trkpt>
      <trkpt lat="50.682460" lon="6.478830">
        <ele>256.330000</ele>
        <time>2009-09-06T09:27:45Z</time>
      </trkpt>
      <trkpt lat="50.682586" lon="6.478620">
        <ele>252.960000</ele>
        <time>2009-09-06T09:28:05Z</time>
      </trkpt>
      <trkpt lat="50.682585" lon="6.478367">
        <ele>251.040000</ele>
        <time>2009-09-06T09:28:17Z</time>
      </trkpt>
      <trkpt lat="50.682686" lon="6.478090">
        <ele>248.160000</ele>
        <time>2009-09-06T09:28:36Z</time>
      </trkpt>
      <trkpt lat="50.682828" lon="6.477905">
        <ele>245.270000</ele>
        <time>2009-09-06T09:28:52Z</time>
      </trkpt>
      <trkpt lat="50.682885" lon="6.477756">
        <ele>243.830000</ele>
        <time>2009-09-06T09:29:12Z</time>
      </trkpt>
      <trkpt lat="50.682920" lon="6.477560">
        <ele>242.390000</ele>
        <time>2009-09-06T09:29:30Z</time>
      </trkpt>
      <trkpt lat="50.682979" lon="6.477465">
        <ele>239.990000</ele>
        <time>2009-09-06T09:30:02Z</time>
      </trkpt>
      <trkpt lat="50.682991" lon="6.477466">
        <ele>239.990000</ele>
        <time>2009-09-06T09:30:03Z</time>
      </trkpt>
      <trkpt lat="50.683153" lon="6.477276">
        <ele>236.620000</ele>
        <time>2009-09-06T09:30:19Z</time>
      </trkpt>
      <trkpt lat="50.683236" lon="6.476999">
        <ele>233.740000</ele>
        <time>2009-09-06T09:30:37Z</time>
      </trkpt>
      <trkpt lat="50.683341" lon="6.476773">
        <ele>230.370000</ele>
        <time>2009-09-06T09:30:57Z</time>
      </trkpt>
      <trkpt lat="50.683458" lon="6.476577">
        <ele>227.010000</ele>
        <time>2009-09-06T09:31:18Z</time>
      </trkpt>
      <trkpt lat="50.683636" lon="6.476262">
        <ele>224.610000</ele>
        <time>2009-09-06T09:31:37Z</time>
      </trkpt>
      <trkpt lat="50.683832" lon="6.476013">
        <ele>222.200000</ele>
        <time>2009-09-06T09:31:56Z</time>
      </trkpt>
      <trkpt lat="50.683906" lon="6.475843">
        <ele>220.280000</ele>
        <time>2009-09-06T09:32:11Z</time>
      </trkpt>
      <trkpt lat="50.683963" lon="6.475489">
        <ele>216.910000</ele>
        <time>2009-09-06T09:32:30Z</time>
      </trkpt>
      <trkpt lat="50.683987" lon="6.475319">
        <ele>214.030000</ele>
        <time>2009-09-06T09:32:46Z</time>
      </trkpt>
      <trkpt lat="50.684137" lon="6.475111">
        <ele>211.150000</ele>
        <time>2009-09-06T09:33:05Z</time>
      </trkpt>
      <trkpt lat="50.684309" lon="6.475023">
        <ele>209.700000</ele>
        <time>2009-09-06T09:33:19Z</time>
      </trkpt>
      <trkpt lat="50.684532" lon="6.474891">
        <ele>208.740000</ele>
        <time>2009-09-06T09:33:40Z</time>
      </trkpt>
      <trkpt lat="50.684823" lon="6.474908">
        <ele>207.300000</ele>
        <time>2009-09-06T09:34:02Z</time>
      </trkpt>
      <trkpt lat="50.685040" lon="6.475025">
        <ele>206.340000</ele>
        <time>2009-09-06T09:34:18Z</time>
      </trkpt>
      <trkpt lat="50.685137" lon="6.475241">
        <ele>206.340000</ele>
        <time>2009-09-06T09:34:29Z</time>
      </trkpt>
      <trkpt lat="50.685318" lon="6.475416">
        <ele>207.780000</ele>
        <time>2009-09-06T09:34:50Z</time>
      </trkpt>
      <trkpt lat="50.685354" lon="6.475502">
        <ele>208.740000</ele>
        <time>2009-09-06T09:34:54Z</time>
      </trkpt>
      <trkpt lat="50.685486" lon="6.475812">
        <ele>210.670000</ele>
        <time>2009-09-06T09:35:13Z</time>
      </trkpt>
      <trkpt lat="50.685592" lon="6.475901">
        <ele>211.630000</ele>
        <time>2009-09-06T09:35:28Z</time>
      </trkpt>
      <trkpt lat="50.685648" lon="6.476014">
        <ele>212.110000</ele>
        <time>2009-09-06T09:35:36Z</time>
      </trkpt>
      <trkpt lat="50.685859" lon="6.476391">
        <ele>213.550000</ele>
        <time>2009-09-06T09:35:56Z</time>
      </trkpt>
      <trkpt lat="50.685997" lon="6.476669">
        <ele>214.510000</ele>
        <time>2009-09-06T09:36:15Z</time>
      </trkpt>
      <trkpt lat="50.686149" lon="6.476881">
        <ele>216.430000</ele>
        <time>2009-09-06T09:36:35Z</time>
      </trkpt>
      <trkpt lat="50.686379" lon="6.477235">
        <ele>218.360000</ele>
        <time>2009-09-06T09:36:55Z</time>
      </trkpt>
      <trkpt lat="50.686452" lon="6.477165">
        <ele>217.400000</ele>
        <time>2009-09-06T09:37:14Z</time>
      </trkpt>
      <trkpt lat="50.686441" lon="6.477090">
        <ele>217.400000</ele>
        <time>2009-09-06T09:37:18Z</time>
      </trkpt>
      <trkpt lat="50.686488" lon="6.476607">
        <ele>216.430000</ele>
        <time>2009-09-06T09:37:41Z</time>
      </trkpt>
      <trkpt lat="50.686574" lon="6.476100">
        <ele>213.070000</ele>
        <time>2009-09-06T09:38:03Z</time>
      </trkpt>
      <trkpt lat="50.686712" lon="6.475846">
        <ele>209.700000</ele>
        <time>2009-09-06T09:38:19Z</time>
      </trkpt>
      <trkpt lat="50.686716" lon="6.475801">
        <ele>209.700000</ele>
        <time>2009-09-06T09:38:21Z</time>
      </trkpt>
      <trkpt lat="50.686734" lon="6.475749">
        <ele>208.260000</ele>
        <time>2009-09-06T09:38:26Z</time>
      </trkpt>
      <trkpt lat="50.686806" lon="6.475570">
        <ele>206.820000</ele>
        <time>2009-09-06T09:38:38Z</time>
      </trkpt>
      <trkpt lat="50.686857" lon="6.475338">
        <ele>204.900000</ele>
        <time>2009-09-06T09:38:51Z</time>
      </trkpt>
      <trkpt lat="50.686913" lon="6.475124">
        <ele>202.980000</ele>
        <time>2009-09-06T09:39:04Z</time>
      </trkpt>
      <trkpt lat="50.686934" lon="6.474894">
        <ele>200.090000</ele>
        <time>2009-09-06T09:39:19Z</time>
      </trkpt>
      <trkpt lat="50.686962" lon="6.474608">
        <ele>197.690000</ele>
        <time>2009-09-06T09:39:32Z</time>
      </trkpt>
      <trkpt lat="50.686976" lon="6.474522">
        <ele>196.250000</ele>
        <time>2009-09-06T09:39:39Z</time>
      </trkpt>
      <trkpt lat="50.687065" lon="6.474307">
        <ele>193.840000</ele>
        <time>2009-09-06T09:39:52Z</time>
      </trkpt>
      <trkpt lat="50.687101" lon="6.474223">
        <ele>192.880000</ele>
        <time>2009-09-06T09:39:57Z</time>
      </trkpt>
      <trkpt lat="50.687162" lon="6.474118">
        <ele>191.920000</ele>
        <time>2009-09-06T09:40:04Z</time>
      </trkpt>
      <trkpt lat="50.687190" lon="6.474050">
        <ele>190.960000</ele>
        <time>2009-09-06T09:40:09Z</time>
      </trkpt>
      <trkpt lat="50.687204" lon="6.473987">
        <ele>190.480000</ele>
        <time>2009-09-06T09:40:13Z</time>
      </trkpt>
      <trkpt lat="50.687247" lon="6.473918">
        <ele>189.520000</ele>
        <time>2009-09-06T09:40:19Z</time>
      </trkpt>
      <trkpt lat="50.687395" lon="6.473685">
        <ele>187.590000</ele>
        <time>2009-09-06T09:40:35Z</time>
      </trkpt>
      <trkpt lat="50.687465" lon="6.473605">
        <ele>186.630000</ele>
        <time>2009-09-06T09:40:43Z</time>
      </trkpt>
      <trkpt lat="50.687576" lon="6.473422">
        <ele>185.670000</ele>
        <time>2009-09-06T09:40:57Z</time>
      </trkpt>
      <trkpt lat="50.687685" lon="6.473223">
        <ele>185.670000</ele>
        <time>2009-09-06T09:41:11Z</time>
      </trkpt>
      <trkpt lat="50.687874" lon="6.473014">
        <ele>185.190000</ele>
        <time>2009-09-06T09:41:25Z</time>
      </trkpt>
      <trkpt lat="50.687881" lon="6.472987">
        <ele>184.710000</ele>
        <time>2009-09-06T09:41:27Z</time>
      </trkpt>
      <trkpt lat="50.687891" lon="6.472885">
        <ele>184.710000</ele>
        <time>2009-09-06T09:41:31Z</time>
      </trkpt>
      <trkpt lat="50.687943" lon="6.472779">
        <ele>183.750000</ele>
        <time>2009-09-06T09:41:37Z</time>
      </trkpt>
      <trkpt lat="50.687963" lon="6.472728">
        <ele>183.270000</ele>
        <time>2009-09-06T09:41:40Z</time>
      </trkpt>
      <trkpt lat="50.688015" lon="6.472773">
        <ele>183.270000</ele>
        <time>2009-09-06T09:41:54Z</time>
      </trkpt>
      <trkpt lat="50.688057" lon="6.472785">
        <ele>183.270000</ele>
        <time>2009-09-06T09:42:17Z</time>
      </trkpt>
      <trkpt lat="50.687981" lon="6.472819">
        <ele>183.270000</ele>
        <time>2009-09-06T09:42:50Z</time>
      </trkpt>
      <trkpt lat="50.688149" lon="6.472729">
        <ele>183.270000</ele>
        <time>2009-09-06T09:43:08Z</time>
      </trkpt>
      <trkpt lat="50.688212" lon="6.472725">
        <ele>183.270000</ele>
        <time>2009-09-06T09:43:13Z</time>
      </trkpt>
      <trkpt lat="50.688294" lon="6.472676">
        <ele>183.270000</ele>
        <time>2009-09-06T09:43:21Z</time>
      </trkpt>
      <trkpt lat="50.688493" lon="6.472568">
        <ele>182.790000</ele>
        <time>2009-09-06T09:43:36Z</time>
      </trkpt>
      <trkpt lat="50.688616" lon="6.472413">
        <ele>182.790000</ele>
        <time>2009-09-06T09:43:51Z</time>
      </trkpt>
      <trkpt lat="50.688748" lon="6.472254">
        <ele>182.310000</ele>
        <time>2009-09-06T09:44:04Z</time>
      </trkpt>
      <trkpt lat="50.688910" lon="6.472134">
        <ele>182.790000</ele>
        <time>2009-09-06T09:44:15Z</time>
      </trkpt>
      <trkpt lat="50.688976" lon="6.472052">
        <ele>182.790000</ele>
        <time>2009-09-06T09:44:21Z</time>
      </trkpt>
      <trkpt lat="50.689063" lon="6.472020">
        <ele>182.790000</ele>
        <time>2009-09-06T09:44:29Z</time>
      </trkpt>
      <trkpt lat="50.689148" lon="6.471951">
        <ele>182.790000</ele>
        <time>2009-09-06T09:44:35Z</time>
      </trkpt>
      <trkpt lat="50.689277" lon="6.471802">
        <ele>182.310000</ele>
        <time>2009-09-06T09:44:46Z</time>
      </trkpt>
      <trkpt lat="50.689403" lon="6.471715">
        <ele>181.350000</ele>
        <time>2009-09-06T09:44:57Z</time>
      </trkpt>
      <trkpt lat="50.689455" lon="6.471630">
        <ele>181.350000</ele>
        <time>2009-09-06T09:45:03Z</time>
      </trkpt>
      <trkpt lat="50.689598" lon="6.471472">
        <ele>181.350000</ele>
        <time>2009-09-06T09:45:16Z</time>
      </trkpt>
      <trkpt lat="50.689690" lon="6.471417">
        <ele>181.830000</ele>
        <time>2009-09-06T09:45:25Z</time>
      </trkpt>
      <trkpt lat="50.689715" lon="6.471361">
        <ele>181.830000</ele>
        <time>2009-09-06T09:45:28Z</time>
      </trkpt>
      <trkpt lat="50.689803" lon="6.471296">
        <ele>182.310000</ele>
        <time>2009-09-06T09:45:35Z</time>
      </trkpt>
      <trkpt lat="50.689876" lon="6.471077">
        <ele>182.310000</ele>
        <time>2009-09-06T09:45:45Z</time>
      </trkpt>
      <trkpt lat="50.690003" lon="6.470823">
        <ele>183.750000</ele>
        <time>2009-09-06T09:45:59Z</time>
      </trkpt>
      <trkpt lat="50.690151" lon="6.470720">
        <ele>183.270000</ele>
        <time>2009-09-06T09:46:12Z</time>
      </trkpt>
      <trkpt lat="50.690292" lon="6.470770">
        <ele>184.230000</ele>
        <time>2009-09-06T09:46:25Z</time>
      </trkpt>
      <trkpt lat="50.690399" lon="6.470803">
        <ele>185.190000</ele>
        <time>2009-09-06T09:46:34Z</time>
      </trkpt>
      <trkpt lat="50.690534" lon="6.470819">
        <ele>186.150000</ele>
        <time>2009-09-06T09:46:46Z</time>
      </trkpt>
      <trkpt lat="50.690590" lon="6.471040">
        <ele>189.520000</ele>
        <time>2009-09-06T09:47:03Z</time>
      </trkpt>
      <trkpt lat="50.690667" lon="6.471198">
        <ele>192.880000</ele>
        <time>2009-09-06T09:47:19Z</time>
      </trkpt>
      <trkpt lat="50.690749" lon="6.471502">
        <ele>195.770000</ele>
        <time>2009-09-06T09:47:38Z</time>
      </trkpt>
      <trkpt lat="50.690651" lon="6.471461">
        <ele>199.130000</ele>
        <time>2009-09-06T09:47:52Z</time>
      </trkpt>
      <trkpt lat="50.690515" lon="6.471381">
        <ele>202.010000</ele>
        <time>2009-09-06T09:48:08Z</time>
      </trkpt>
      <trkpt lat="50.690366" lon="6.471296">
        <ele>204.900000</ele>
        <time>2009-09-06T09:48:25Z</time>
      </trkpt>
      <trkpt lat="50.690225" lon="6.471263">
        <ele>207.300000</ele>
        <time>2009-09-06T09:48:40Z</time>
      </trkpt>
      <trkpt lat="50.690150" lon="6.471271">
        <ele>209.220000</ele>
        <time>2009-09-06T09:48:50Z</time>
      </trkpt>
      <trkpt lat="50.690023" lon="6.471400">
        <ele>212.110000</ele>
        <time>2009-09-06T09:49:09Z</time>
      </trkpt>
      <trkpt lat="50.690012" lon="6.471599">
        <ele>214.990000</ele>
        <time>2009-09-06T09:49:25Z</time>
      </trkpt>
      <trkpt lat="50.689987" lon="6.471793">
        <ele>218.360000</ele>
        <time>2009-09-06T09:49:42Z</time>
      </trkpt>
      <trkpt lat="50.689955" lon="6.471963">
        <ele>221.240000</ele>
        <time>2009-09-06T09:49:57Z</time>
      </trkpt>
      <trkpt lat="50.690013" lon="6.472023">
        <ele>224.120000</ele>
        <time>2009-09-06T09:50:13Z</time>
      </trkpt>
      <trkpt lat="50.690114" lon="6.471885">
        <ele>226.530000</ele>
        <time>2009-09-06T09:50:28Z</time>
      </trkpt>
      <trkpt lat="50.690259" lon="6.472063">
        <ele>228.450000</ele>
        <time>2009-09-06T09:50:44Z</time>
      </trkpt>
      <trkpt lat="50.690316" lon="6.472262">
        <ele>231.330000</ele>
        <time>2009-09-06T09:50:59Z</time>
      </trkpt>
      <trkpt lat="50.690297" lon="6.472517">
        <ele>234.220000</ele>
        <time>2009-09-06T09:51:17Z</time>
      </trkpt>
      <trkpt lat="50.690239" lon="6.472691">
        <ele>236.140000</ele>
        <time>2009-09-06T09:51:28Z</time>
      </trkpt>
      <trkpt lat="50.690125" lon="6.472795">
        <ele>237.100000</ele>
        <time>2009-09-06T09:51:48Z</time>
      </trkpt>
      <trkpt lat="50.690040" lon="6.472631">
        <ele>239.990000</ele>
        <time>2009-09-06T09:52:02Z</time>
      </trkpt>
      <trkpt lat="50.689978" lon="6.472547">
        <ele>242.390000</ele>
        <time>2009-09-06T09:52:12Z</time>
      </trkpt>
      <trkpt lat="50.689829" lon="6.472690">
        <ele>245.270000</ele>
        <time>2009-09-06T09:52:32Z</time>
      </trkpt>
      <trkpt lat="50.689822" lon="6.472753">
        <ele>246.230000</ele>
        <time>2009-09-06T09:52:37Z</time>
      </trkpt>
      <trkpt lat="50.689749" lon="6.472974">
        <ele>249.120000</ele>
        <time>2009-09-06T09:52:56Z</time>
      </trkpt>
      <trkpt lat="50.689676" lon="6.473116">
        <ele>252.480000</ele>
        <time>2009-09-06T09:53:09Z</time>
      </trkpt>
      <trkpt lat="50.689560" lon="6.473362">
        <ele>255.370000</ele>
        <time>2009-09-06T09:53:31Z</time>
      </trkpt>
      <trkpt lat="50.689492" lon="6.473487">
        <ele>258.250000</ele>
        <time>2009-09-06T09:53:49Z</time>
      </trkpt>
      <trkpt lat="50.689411" lon="6.473730">
        <ele>261.620000</ele>
        <time>2009-09-06T09:54:08Z</time>
      </trkpt>
      <trkpt lat="50.689297" lon="6.473941">
        <ele>264.020000</ele>
        <time>2009-09-06T09:54:27Z</time>
      </trkpt>
      <trkpt lat="50.689263" lon="6.474143">
        <ele>265.460000</ele>
        <time>2009-09-06T09:54:47Z</time>
      </trkpt>
      <trkpt lat="50.689163" lon="6.474298">
        <ele>267.380000</ele>
        <time>2009-09-06T09:55:08Z</time>
      </trkpt>
      <trkpt lat="50.689177" lon="6.474558">
        <ele>270.270000</ele>
        <time>2009-09-06T09:55:24Z</time>
      </trkpt>
      <trkpt lat="50.689084" lon="6.474711">
        <ele>272.670000</ele>
        <time>2009-09-06T09:55:41Z</time>
      </trkpt>
      <trkpt lat="50.689032" lon="6.474711">
        <ele>272.190000</ele>
        <time>2009-09-06T09:56:07Z</time>
      </trkpt>
      <trkpt lat="50.689064" lon="6.474600">
        <ele>272.190000</ele>
        <time>2009-09-06T09:56:18Z</time>
      </trkpt>
      <trkpt lat="50.689144" lon="6.474422">
        <ele>275.560000</ele>
        <time>2009-09-06T09:56:31Z</time>
      </trkpt>
      <trkpt lat="50.689266" lon="6.474343">
        <ele>277.000000</ele>
        <time>2009-09-06T09:56:42Z</time>
      </trkpt>
      <trkpt lat="50.689364" lon="6.474204">
        <ele>277.960000</ele>
        <time>2009-09-06T09:56:53Z</time>
      </trkpt>
      <trkpt lat="50.689550" lon="6.473924">
        <ele>279.880000</ele>
        <time>2009-09-06T09:57:12Z</time>
      </trkpt>
      <trkpt lat="50.689602" lon="6.473796">
        <ele>279.400000</ele>
        <time>2009-09-06T09:57:19Z</time>
      </trkpt>
      <trkpt lat="50.689615" lon="6.473906">
        <ele>281.320000</ele>
        <time>2009-09-06T09:57:31Z</time>
      </trkpt>
      <trkpt lat="50.689598" lon="6.473853">
        <ele>280.840000</ele>
        <time>2009-09-06T09:57:45Z</time>
      </trkpt>
      <trkpt lat="50.689613" lon="6.473961">
        <ele>281.800000</ele>
        <time>2009-09-06T09:57:53Z</time>
      </trkpt>
      <trkpt lat="50.689693" lon="6.474304">
        <ele>283.250000</ele>
        <time>2009-09-06T09:58:08Z</time>
      </trkpt>
      <trkpt lat="50.689781" lon="6.474484">
        <ele>285.170000</ele>
        <time>2009-09-06T09:58:24Z</time>
      </trkpt>
      <trkpt lat="50.689866" lon="6.474709">
        <ele>287.090000</ele>
        <time>2009-09-06T09:58:44Z</time>
      </trkpt>
      <trkpt lat="50.690038" lon="6.474890">
        <ele>287.570000</ele>
        <time>2009-09-06T09:59:05Z</time>
      </trkpt>
      <trkpt lat="50.690055" lon="6.474987">
        <ele>287.570000</ele>
        <time>2009-09-06T09:59:46Z</time>
      </trkpt>
      <trkpt lat="50.690022" lon="6.475042">
        <ele>288.050000</ele>
        <time>2009-09-06T10:00:45Z</time>
      </trkpt>
      <trkpt lat="50.690006" lon="6.475080">
        <ele>287.570000</ele>
        <time>2009-09-06T10:01:10Z</time>
      </trkpt>
      <trkpt lat="50.689995" lon="6.475176">
        <ele>286.130000</ele>
        <time>2009-09-06T10:01:40Z</time>
      </trkpt>
      <trkpt lat="50.690003" lon="6.475327">
        <ele>283.250000</ele>
        <time>2009-09-06T10:01:54Z</time>
      </trkpt>
      <trkpt lat="50.689998" lon="6.475358">
        <ele>283.250000</ele>
        <time>2009-09-06T10:01:56Z</time>
      </trkpt>
      <trkpt lat="50.689974" lon="6.475634">
        <ele>281.320000</ele>
        <time>2009-09-06T10:02:15Z</time>
      </trkpt>
      <trkpt lat="50.689941" lon="6.475946">
        <ele>281.320000</ele>
        <time>2009-09-06T10:02:34Z</time>
      </trkpt>
      <trkpt lat="50.689829" lon="6.476298">
        <ele>281.800000</ele>
        <time>2009-09-06T10:02:54Z</time>
      </trkpt>
      <trkpt lat="50.689843" lon="6.476533">
        <ele>283.730000</ele>
        <time>2009-09-06T10:03:08Z</time>
      </trkpt>
      <trkpt lat="50.689889" lon="6.476861">
        <ele>284.690000</ele>
        <time>2009-09-06T10:03:26Z</time>
      </trkpt>
      <trkpt lat="50.689888" lon="6.476910">
        <ele>284.690000</ele>
        <time>2009-09-06T10:03:29Z</time>
      </trkpt>
      <trkpt lat="50.689950" lon="6.477263">
        <ele>286.610000</ele>
        <time>2009-09-06T10:03:52Z</time>
      </trkpt>
      <trkpt lat="50.689981" lon="6.477455">
        <ele>288.530000</ele>
        <time>2009-09-06T10:04:14Z</time>
      </trkpt>
      <trkpt lat="50.690156" lon="6.477582">
        <ele>290.940000</ele>
        <time>2009-09-06T10:05:03Z</time>
      </trkpt>
      <trkpt lat="50.690238" lon="6.477746">
        <ele>292.380000</ele>
        <time>2009-09-06T10:05:14Z</time>
      </trkpt>
      <trkpt lat="50.690302" lon="6.477728">
        <ele>291.900000</ele>
        <time>2009-09-06T10:09:51Z</time>
      </trkpt>
      <trkpt lat="50.690294" lon="6.477741">
        <ele>291.900000</ele>
        <time>2009-09-06T10:09:52Z</time>
      </trkpt>
      <trkpt lat="50.690176" lon="6.478012">
        <ele>294.780000</ele>
        <time>2009-09-06T10:10:12Z</time>
      </trkpt>
      <trkpt lat="50.690068" lon="6.478073">
        <ele>297.670000</ele>
        <time>2009-09-06T10:10:23Z</time>
      </trkpt>
      <trkpt lat="50.689926" lon="6.478063">
        <ele>301.030000</ele>
        <time>2009-09-06T10:10:40Z</time>
      </trkpt>
      <trkpt lat="50.689836" lon="6.478005">
        <ele>303.910000</ele>
        <time>2009-09-06T10:10:53Z</time>
      </trkpt>
      <trkpt lat="50.689777" lon="6.477961">
        <ele>307.280000</ele>
        <time>2009-09-06T10:11:07Z</time>
      </trkpt>
      <trkpt lat="50.689675" lon="6.477903">
        <ele>310.160000</ele>
        <time>2009-09-06T10:11:20Z</time>
      </trkpt>
      <trkpt lat="50.689534" lon="6.477811">
        <ele>313.050000</ele>
        <time>2009-09-06T10:11:34Z</time>
      </trkpt>
      <trkpt lat="50.689492" lon="6.477926">
        <ele>316.410000</ele>
        <time>2009-09-06T10:11:50Z</time>
      </trkpt>
      <trkpt lat="50.689622" lon="6.478194">
        <ele>318.810000</ele>
        <time>2009-09-06T10:12:12Z</time>
      </trkpt>
      <trkpt lat="50.689616" lon="6.478343">
        <ele>322.180000</ele>
        <time>2009-09-06T10:12:27Z</time>
      </trkpt>
      <trkpt lat="50.689513" lon="6.478359">
        <ele>325.060000</ele>
        <time>2009-09-06T10:12:41Z</time>
      </trkpt>
      <trkpt lat="50.689392" lon="6.478282">
        <ele>325.540000</ele>
        <time>2009-09-06T10:12:58Z</time>
      </trkpt>
      <trkpt lat="50.689354" lon="6.478254">
        <ele>326.020000</ele>
        <time>2009-09-06T10:13:01Z</time>
      </trkpt>
      <trkpt lat="50.689276" lon="6.478320">
        <ele>325.540000</ele>
        <time>2009-09-06T10:13:07Z</time>
      </trkpt>
      <trkpt lat="50.689239" lon="6.478381">
        <ele>326.500000</ele>
        <time>2009-09-06T10:13:15Z</time>
      </trkpt>
      <trkpt lat="50.689169" lon="6.478067">
        <ele>326.020000</ele>
        <time>2009-09-06T10:13:29Z</time>
      </trkpt>
      <trkpt lat="50.689113" lon="6.477900">
        <ele>327.470000</ele>
        <time>2009-09-06T10:13:42Z</time>
      </trkpt>
      <trkpt lat="50.689058" lon="6.477885">
        <ele>327.950000</ele>
        <time>2009-09-06T10:13:47Z</time>
      </trkpt>
      <trkpt lat="50.688846" lon="6.477923">
        <ele>328.910000</ele>
        <time>2009-09-06T10:14:07Z</time>
      </trkpt>
      <trkpt lat="50.688687" lon="6.477769">
        <ele>329.390000</ele>
        <time>2009-09-06T10:14:24Z</time>
      </trkpt>
      <trkpt lat="50.688497" lon="6.477322">
        <ele>331.310000</ele>
        <time>2009-09-06T10:14:44Z</time>
      </trkpt>
      <trkpt lat="50.688509" lon="6.477263">
        <ele>334.200000</ele>
        <time>2009-09-06T10:15:03Z</time>
      </trkpt>
      <trkpt lat="50.688482" lon="6.476933">
        <ele>336.120000</ele>
        <time>2009-09-06T10:15:24Z</time>
      </trkpt>
      <trkpt lat="50.688451" lon="6.476761">
        <ele>336.120000</ele>
        <time>2009-09-06T10:15:42Z</time>
      </trkpt>
      <trkpt lat="50.688475" lon="6.476780">
        <ele>336.600000</ele>
        <time>2009-09-06T10:16:33Z</time>
      </trkpt>
    </trkseg>
  </trk>

</gpx>
